sensor_id;sensor_type;location;lat;lon;timestamp;P1;durP1;ratioP1;P2;durP2;ratioP2
52029;SDS011;38043;53.224;6.580;2023-07-22T00:00:55;10.18;;;5.15;;
52029;SDS011;38043;53.224;6.580;2023-07-22T00:03:21;10.10;;;5.05;;
52029;SDS011;38043;53.224;6.580;2023-07-22T00:05:48;10.85;;;4.90;;
52029;SDS011;38043;53.224;6.580;2023-07-22T00:08:14;10.85;;;5.35;;
52029;SDS011;38043;53.224;6.580;2023-07-22T00:10:42;13.45;;;5.43;;
52029;SDS011;38043;53.224;6.580;2023-07-22T00:13:08;9.95;;;5.13;;
52029;SDS011;38043;53.224;6.580;2023-07-22T00:15:34;9.73;;;5.63;;
52029;SDS011;38043;53.224;6.580;2023-07-22T00:18:00;10.75;;;5.72;;
52029;SDS011;38043;53.224;6.580;2023-07-22T00:20:25;12.27;;;5.65;;
52029;SDS011;38043;53.224;6.580;2023-07-22T00:22:51;13.27;;;6.28;;
52029;SDS011;38043;53.224;6.580;2023-07-22T00:25:17;8.77;;;4.78;;
52029;SDS011;38043;53.224;6.580;2023-07-22T00:27:43;11.95;;;5.80;;
52029;SDS011;38043;53.224;6.580;2023-07-22T00:30:09;10.65;;;5.65;;
52029;SDS011;38043;53.224;6.580;2023-07-22T00:32:36;14.68;;;5.85;;
52029;SDS011;38043;53.224;6.580;2023-07-22T00:35:03;11.95;;;6.10;;
52029;SDS011;38043;53.224;6.580;2023-07-22T00:37:32;12.82;;;6.00;;
52029;SDS011;38043;53.224;6.580;2023-07-22T00:39:58;14.05;;;5.97;;
52029;SDS011;38043;53.224;6.580;2023-07-22T00:42:24;11.43;;;6.03;;
52029;SDS011;38043;53.224;6.580;2023-07-22T00:44:50;10.02;;;5.65;;
52029;SDS011;38043;53.224;6.580;2023-07-22T00:47:16;10.95;;;6.00;;
52029;SDS011;38043;53.224;6.580;2023-07-22T00:49:43;10.82;;;5.32;;
52029;SDS011;38043;53.224;6.580;2023-07-22T00:52:12;11.93;;;5.47;;
52029;SDS011;38043;53.224;6.580;2023-07-22T00:54:38;11.05;;;5.78;;
52029;SDS011;38043;53.224;6.580;2023-07-22T00:57:04;10.95;;;5.45;;
52029;SDS011;38043;53.224;6.580;2023-07-22T00:59:29;11.60;;;5.88;;
52029;SDS011;38043;53.224;6.580;2023-07-22T01:01:56;12.23;;;5.85;;
52029;SDS011;38043;53.224;6.580;2023-07-22T01:04:22;10.57;;;5.47;;
52029;SDS011;38043;53.224;6.580;2023-07-22T01:06:49;13.50;;;5.53;;
52029;SDS011;38043;53.224;6.580;2023-07-22T01:09:16;9.32;;;5.63;;
52029;SDS011;38043;53.224;6.580;2023-07-22T01:11:42;13.32;;;5.40;;
52029;SDS011;38043;53.224;6.580;2023-07-22T01:14:08;13.35;;;6.25;;
52029;SDS011;38043;53.224;6.580;2023-07-22T01:16:34;12.73;;;5.65;;
52029;SDS011;38043;53.224;6.580;2023-07-22T01:19:00;16.15;;;6.00;;
52029;SDS011;38043;53.224;6.580;2023-07-22T01:21:26;12.93;;;6.80;;
52029;SDS011;38043;53.224;6.580;2023-07-22T01:23:52;14.63;;;6.18;;
52029;SDS011;38043;53.224;6.580;2023-07-22T01:26:19;16.23;;;6.53;;
52029;SDS011;38043;53.224;6.580;2023-07-22T01:28:45;11.68;;;6.35;;
52029;SDS011;38043;53.224;6.580;2023-07-22T01:31:10;12.95;;;6.25;;
52029;SDS011;38043;53.224;6.580;2023-07-22T01:33:39;12.05;;;6.13;;
52029;SDS011;38043;53.224;6.580;2023-07-22T01:36:05;13.38;;;5.80;;
52029;SDS011;38043;53.224;6.580;2023-07-22T01:38:31;11.38;;;5.95;;
52029;SDS011;38043;53.224;6.580;2023-07-22T01:40:56;12.18;;;6.32;;
52029;SDS011;38043;53.224;6.580;2023-07-22T01:43:23;16.15;;;6.28;;
52029;SDS011;38043;53.224;6.580;2023-07-22T01:45:50;12.43;;;6.47;;
52029;SDS011;38043;53.224;6.580;2023-07-22T01:48:15;9.02;;;5.13;;
52029;SDS011;38043;53.224;6.580;2023-07-22T01:50:41;12.20;;;5.75;;
52029;SDS011;38043;53.224;6.580;2023-07-22T01:53:06;12.02;;;5.85;;
52029;SDS011;38043;53.224;6.580;2023-07-22T01:55:32;11.15;;;5.38;;
52029;SDS011;38043;53.224;6.580;2023-07-22T01:57:58;12.05;;;6.07;;
52029;SDS011;38043;53.224;6.580;2023-07-22T02:00:27;14.80;;;5.65;;
52029;SDS011;38043;53.224;6.580;2023-07-22T02:02:53;12.32;;;5.50;;
52029;SDS011;38043;53.224;6.580;2023-07-22T02:05:19;12.23;;;6.05;;
52029;SDS011;38043;53.224;6.580;2023-07-22T02:07:46;9.02;;;5.53;;
52029;SDS011;38043;53.224;6.580;2023-07-22T02:10:11;16.10;;;5.80;;
52029;SDS011;38043;53.224;6.580;2023-07-22T02:12:37;10.85;;;5.90;;
52029;SDS011;38043;53.224;6.580;2023-07-22T02:15:04;10.18;;;5.00;;
52029;SDS011;38043;53.224;6.580;2023-07-22T02:17:30;10.50;;;5.40;;
52029;SDS011;38043;53.224;6.580;2023-07-22T02:19:56;11.45;;;5.20;;
52029;SDS011;38043;53.224;6.580;2023-07-22T02:22:21;10.45;;;5.20;;
52029;SDS011;38043;53.224;6.580;2023-07-22T02:24:47;12.77;;;6.05;;
52029;SDS011;38043;53.224;6.580;2023-07-22T02:27:13;10.80;;;5.57;;
52029;SDS011;38043;53.224;6.580;2023-07-22T02:29:39;10.52;;;6.00;;
52029;SDS011;38043;53.224;6.580;2023-07-22T02:32:05;13.65;;;6.13;;
52029;SDS011;38043;53.224;6.580;2023-07-22T02:34:31;11.82;;;5.88;;
52029;SDS011;38043;53.224;6.580;2023-07-22T02:36:56;12.63;;;6.00;;
52029;SDS011;38043;53.224;6.580;2023-07-22T02:39:22;9.57;;;5.10;;
52029;SDS011;38043;53.224;6.580;2023-07-22T02:41:48;12.40;;;5.07;;
52029;SDS011;38043;53.224;6.580;2023-07-22T02:44:13;12.30;;;5.07;;
52029;SDS011;38043;53.224;6.580;2023-07-22T02:46:39;9.70;;;5.43;;
52029;SDS011;38043;53.224;6.580;2023-07-22T02:49:06;16.42;;;6.03;;
52029;SDS011;38043;53.224;6.580;2023-07-22T02:51:32;11.98;;;5.13;;
52029;SDS011;38043;53.224;6.580;2023-07-22T02:53:57;12.80;;;5.35;;
52029;SDS011;38043;53.224;6.580;2023-07-22T02:56:23;11.75;;;5.40;;
52029;SDS011;38043;53.224;6.580;2023-07-22T02:58:49;8.52;;;4.47;;
52029;SDS011;38043;53.224;6.580;2023-07-22T03:01:15;9.02;;;5.30;;
52029;SDS011;38043;53.224;6.580;2023-07-22T03:03:41;9.63;;;5.15;;
52029;SDS011;38043;53.224;6.580;2023-07-22T03:06:06;10.02;;;5.03;;
52029;SDS011;38043;53.224;6.580;2023-07-22T03:08:34;12.18;;;5.38;;
52029;SDS011;38043;53.224;6.580;2023-07-22T03:11:00;10.07;;;5.07;;
52029;SDS011;38043;53.224;6.580;2023-07-22T03:13:25;12.50;;;5.60;;
52029;SDS011;38043;53.224;6.580;2023-07-22T03:15:55;8.05;;;4.53;;
52029;SDS011;38043;53.224;6.580;2023-07-22T03:18:21;11.20;;;5.07;;
52029;SDS011;38043;53.224;6.580;2023-07-22T03:20:46;13.00;;;5.45;;
52029;SDS011;38043;53.224;6.580;2023-07-22T03:23:12;11.02;;;4.95;;
52029;SDS011;38043;53.224;6.580;2023-07-22T03:25:38;11.20;;;5.13;;
52029;SDS011;38043;53.224;6.580;2023-07-22T03:28:04;8.77;;;5.32;;
52029;SDS011;38043;53.224;6.580;2023-07-22T03:30:31;12.18;;;5.75;;
52029;SDS011;38043;53.224;6.580;2023-07-22T03:32:57;13.77;;;6.13;;
52029;SDS011;38043;53.224;6.580;2023-07-22T03:35:26;13.02;;;6.97;;
52029;SDS011;38043;53.224;6.580;2023-07-22T03:37:53;13.77;;;7.20;;
52029;SDS011;38043;53.224;6.580;2023-07-22T03:40:19;15.50;;;7.88;;
52029;SDS011;38043;53.224;6.580;2023-07-22T03:42:49;15.10;;;7.40;;
52029;SDS011;38043;53.224;6.580;2023-07-22T03:45:16;17.35;;;7.25;;
52029;SDS011;38043;53.224;6.580;2023-07-22T03:47:43;13.82;;;6.47;;
52029;SDS011;38043;53.224;6.580;2023-07-22T03:52:36;13.15;;;6.18;;
52029;SDS011;38043;53.224;6.580;2023-07-22T03:55:02;15.30;;;6.38;;
52029;SDS011;38043;53.224;6.580;2023-07-22T03:57:28;13.73;;;6.00;;
52029;SDS011;38043;53.224;6.580;2023-07-22T03:59:54;20.10;;;6.40;;
52029;SDS011;38043;53.224;6.580;2023-07-22T04:02:21;10.75;;;5.72;;
52029;SDS011;38043;53.224;6.580;2023-07-22T04:04:47;10.15;;;5.72;;
52029;SDS011;38043;53.224;6.580;2023-07-22T04:07:12;9.50;;;5.53;;
52029;SDS011;38043;53.224;6.580;2023-07-22T04:09:38;11.90;;;5.57;;
52029;SDS011;38043;53.224;6.580;2023-07-22T04:12:05;12.63;;;5.85;;
52029;SDS011;38043;53.224;6.580;2023-07-22T04:14:31;12.38;;;5.05;;
52029;SDS011;38043;53.224;6.580;2023-07-22T04:16:57;10.43;;;4.93;;
52029;SDS011;38043;53.224;6.580;2023-07-22T04:19:23;11.60;;;4.63;;
52029;SDS011;38043;53.224;6.580;2023-07-22T04:21:49;12.90;;;4.75;;
52029;SDS011;38043;53.224;6.580;2023-07-22T04:24:14;8.25;;;4.45;;
52029;SDS011;38043;53.224;6.580;2023-07-22T04:26:41;7.93;;;4.28;;
52029;SDS011;38043;53.224;6.580;2023-07-22T04:29:07;9.38;;;4.35;;
52029;SDS011;38043;53.224;6.580;2023-07-22T04:31:33;10.63;;;4.93;;
52029;SDS011;38043;53.224;6.580;2023-07-22T04:33:59;9.98;;;4.13;;
52029;SDS011;38043;53.224;6.580;2023-07-22T04:36:24;6.35;;;4.10;;
52029;SDS011;38043;53.224;6.580;2023-07-22T04:38:50;10.82;;;4.32;;
52029;SDS011;38043;53.224;6.580;2023-07-22T04:41:16;9.27;;;4.28;;
52029;SDS011;38043;53.224;6.580;2023-07-22T04:43:41;9.15;;;4.03;;
52029;SDS011;38043;53.224;6.580;2023-07-22T04:46:07;10.38;;;4.70;;
52029;SDS011;38043;53.224;6.580;2023-07-22T04:48:34;9.02;;;4.28;;
52029;SDS011;38043;53.224;6.580;2023-07-22T04:51:01;7.22;;;4.20;;
52029;SDS011;38043;53.224;6.580;2023-07-22T04:53:27;9.63;;;5.05;;
52029;SDS011;38043;53.224;6.580;2023-07-22T04:55:53;9.38;;;5.00;;
52029;SDS011;38043;53.224;6.580;2023-07-22T04:58:20;8.52;;;4.90;;
52029;SDS011;38043;53.224;6.580;2023-07-22T05:00:46;9.82;;;4.80;;
52029;SDS011;38043;53.224;6.580;2023-07-22T05:03:12;13.05;;;6.07;;
52029;SDS011;38043;53.224;6.580;2023-07-22T05:05:38;11.15;;;5.70;;
52029;SDS011;38043;53.224;6.580;2023-07-22T05:08:04;10.30;;;5.30;;
52029;SDS011;38043;53.224;6.580;2023-07-22T05:10:30;9.50;;;5.55;;
52029;SDS011;38043;53.224;6.580;2023-07-22T05:12:55;12.27;;;6.57;;
52029;SDS011;38043;53.224;6.580;2023-07-22T05:15:22;15.20;;;6.47;;
52029;SDS011;38043;53.224;6.580;2023-07-22T05:17:48;12.20;;;6.32;;
52029;SDS011;38043;53.224;6.580;2023-07-22T05:20:14;12.60;;;6.03;;
52029;SDS011;38043;53.224;6.580;2023-07-22T05:22:40;11.48;;;5.97;;
52029;SDS011;38043;53.224;6.580;2023-07-22T05:25:07;12.15;;;6.40;;
52029;SDS011;38043;53.224;6.580;2023-07-22T05:27:33;12.77;;;6.50;;
52029;SDS011;38043;53.224;6.580;2023-07-22T05:29:59;12.90;;;6.35;;
52029;SDS011;38043;53.224;6.580;2023-07-22T05:32:25;12.00;;;5.82;;
52029;SDS011;38043;53.224;6.580;2023-07-22T05:34:52;15.18;;;7.40;;
52029;SDS011;38043;53.224;6.580;2023-07-22T05:37:18;11.82;;;7.30;;
52029;SDS011;38043;53.224;6.580;2023-07-22T05:39:44;11.65;;;6.68;;
52029;SDS011;38043;53.224;6.580;2023-07-22T05:42:09;13.35;;;7.13;;
52029;SDS011;38043;53.224;6.580;2023-07-22T05:44:35;14.63;;;7.20;;
52029;SDS011;38043;53.224;6.580;2023-07-22T05:47:00;12.32;;;6.78;;
52029;SDS011;38043;53.224;6.580;2023-07-22T05:49:26;11.07;;;6.55;;
52029;SDS011;38043;53.224;6.580;2023-07-22T05:51:52;12.65;;;7.03;;
52029;SDS011;38043;53.224;6.580;2023-07-22T05:54:19;11.82;;;7.10;;
52029;SDS011;38043;53.224;6.580;2023-07-22T05:56:46;13.27;;;7.10;;
52029;SDS011;38043;53.224;6.580;2023-07-22T05:59:11;11.20;;;7.10;;
52029;SDS011;38043;53.224;6.580;2023-07-22T06:01:37;10.73;;;6.57;;
52029;SDS011;38043;53.224;6.580;2023-07-22T06:04:03;11.27;;;6.63;;
52029;SDS011;38043;53.224;6.580;2023-07-22T06:06:29;12.32;;;6.90;;
52029;SDS011;38043;53.224;6.580;2023-07-22T06:08:55;14.27;;;7.30;;
52029;SDS011;38043;53.224;6.580;2023-07-22T06:11:21;12.82;;;6.68;;
52029;SDS011;38043;53.224;6.580;2023-07-22T06:13:46;13.02;;;7.20;;
52029;SDS011;38043;53.224;6.580;2023-07-22T06:16:12;10.73;;;6.93;;
52029;SDS011;38043;53.224;6.580;2023-07-22T06:18:38;11.70;;;6.95;;
52029;SDS011;38043;53.224;6.580;2023-07-22T06:21:04;11.35;;;6.45;;
52029;SDS011;38043;53.224;6.580;2023-07-22T06:23:30;10.23;;;6.80;;
52029;SDS011;38043;53.224;6.580;2023-07-22T06:25:55;14.98;;;6.75;;
52029;SDS011;38043;53.224;6.580;2023-07-22T06:28:21;18.27;;;7.30;;
52029;SDS011;38043;53.224;6.580;2023-07-22T06:30:47;14.95;;;7.50;;
52029;SDS011;38043;53.224;6.580;2023-07-22T06:33:12;15.00;;;7.65;;
52029;SDS011;38043;53.224;6.580;2023-07-22T06:35:38;14.55;;;7.65;;
52029;SDS011;38043;53.224;6.580;2023-07-22T06:38:04;14.02;;;7.78;;
52029;SDS011;38043;53.224;6.580;2023-07-22T06:40:29;16.73;;;7.82;;
52029;SDS011;38043;53.224;6.580;2023-07-22T06:42:55;14.93;;;8.10;;
52029;SDS011;38043;53.224;6.580;2023-07-22T06:45:21;12.18;;;7.60;;
52029;SDS011;38043;53.224;6.580;2023-07-22T06:47:46;12.05;;;7.82;;
52029;SDS011;38043;53.224;6.580;2023-07-22T06:50:12;13.43;;;7.90;;
52029;SDS011;38043;53.224;6.580;2023-07-22T06:52:38;14.52;;;8.48;;
52029;SDS011;38043;53.224;6.580;2023-07-22T06:55:03;12.27;;;8.32;;
52029;SDS011;38043;53.224;6.580;2023-07-22T06:57:30;12.05;;;8.30;;
52029;SDS011;38043;53.224;6.580;2023-07-22T06:59:56;16.83;;;8.23;;
52029;SDS011;38043;53.224;6.580;2023-07-22T07:02:22;17.02;;;8.45;;
52029;SDS011;38043;53.224;6.580;2023-07-22T07:04:48;13.00;;;8.70;;
52029;SDS011;38043;53.224;6.580;2023-07-22T07:07:14;15.07;;;8.32;;
52029;SDS011;38043;53.224;6.580;2023-07-22T07:09:40;17.98;;;7.95;;
52029;SDS011;38043;53.224;6.580;2023-07-22T07:12:06;13.45;;;8.77;;
52029;SDS011;38043;53.224;6.580;2023-07-22T07:14:32;15.45;;;8.25;;
52029;SDS011;38043;53.224;6.580;2023-07-22T07:16:59;18.73;;;8.70;;
52029;SDS011;38043;53.224;6.580;2023-07-22T07:19:25;14.65;;;8.30;;
52029;SDS011;38043;53.224;6.580;2023-07-22T07:21:51;11.43;;;7.53;;
52029;SDS011;38043;53.224;6.580;2023-07-22T07:24:17;13.00;;;7.75;;
52029;SDS011;38043;53.224;6.580;2023-07-22T07:26:43;14.43;;;8.63;;
52029;SDS011;38043;53.224;6.580;2023-07-22T07:29:08;14.32;;;8.18;;
52029;SDS011;38043;53.224;6.580;2023-07-22T07:31:34;14.65;;;8.50;;
52029;SDS011;38043;53.224;6.580;2023-07-22T07:34:00;13.18;;;7.63;;
52029;SDS011;38043;53.224;6.580;2023-07-22T07:36:26;14.45;;;7.97;;
52029;SDS011;38043;53.224;6.580;2023-07-22T07:38:51;15.55;;;8.85;;
52029;SDS011;38043;53.224;6.580;2023-07-22T07:41:17;14.45;;;8.73;;
52029;SDS011;38043;53.224;6.580;2023-07-22T07:43:43;14.30;;;8.63;;
52029;SDS011;38043;53.224;6.580;2023-07-22T07:48:48;12.48;;;8.63;;
52029;SDS011;38043;53.224;6.580;2023-07-22T07:53:41;14.80;;;8.98;;
52029;SDS011;38043;53.224;6.580;2023-07-22T07:56:17;15.40;;;9.02;;
52029;SDS011;38043;53.224;6.580;2023-07-22T07:58:44;13.70;;;8.70;;
52029;SDS011;38043;53.224;6.580;2023-07-22T08:01:10;13.43;;;9.17;;
52029;SDS011;38043;53.224;6.580;2023-07-22T08:03:37;16.70;;;9.70;;
52029;SDS011;38043;53.224;6.580;2023-07-22T08:06:04;15.05;;;9.18;;
52029;SDS011;38043;53.224;6.580;2023-07-22T08:08:31;17.77;;;9.38;;
52029;SDS011;38043;53.224;6.580;2023-07-22T08:11:01;15.93;;;8.85;;
52029;SDS011;38043;53.224;6.580;2023-07-22T08:13:28;12.48;;;8.63;;
52029;SDS011;38043;53.224;6.580;2023-07-22T08:15:56;11.65;;;7.38;;
52029;SDS011;38043;53.224;6.580;2023-07-22T08:18:25;12.13;;;7.75;;
52029;SDS011;38043;53.224;6.580;2023-07-22T08:20:52;11.40;;;7.90;;
52029;SDS011;38043;53.224;6.580;2023-07-22T08:23:18;12.45;;;7.45;;
52029;SDS011;38043;53.224;6.580;2023-07-22T08:25:44;12.02;;;7.57;;
52029;SDS011;38043;53.224;6.580;2023-07-22T08:28:10;14.05;;;7.65;;
52029;SDS011;38043;53.224;6.580;2023-07-22T08:30:36;10.15;;;7.72;;
52029;SDS011;38043;53.224;6.580;2023-07-22T08:33:02;11.85;;;7.50;;
52029;SDS011;38043;53.224;6.580;2023-07-22T08:35:27;11.93;;;7.15;;
52029;SDS011;38043;53.224;6.580;2023-07-22T08:37:53;12.77;;;7.60;;
52029;SDS011;38043;53.224;6.580;2023-07-22T08:40:19;10.82;;;7.68;;
52029;SDS011;38043;53.224;6.580;2023-07-22T08:42:45;11.10;;;7.20;;
52029;SDS011;38043;53.224;6.580;2023-07-22T08:45:13;10.35;;;6.38;;
52029;SDS011;38043;53.224;6.580;2023-07-22T08:47:47;11.43;;;7.20;;
52029;SDS011;38043;53.224;6.580;2023-07-22T08:50:16;10.63;;;6.40;;
52029;SDS011;38043;53.224;6.580;2023-07-22T08:52:46;10.65;;;6.10;;
52029;SDS011;38043;53.224;6.580;2023-07-22T08:55:12;9.65;;;6.40;;
52029;SDS011;38043;53.224;6.580;2023-07-22T08:57:39;9.68;;;5.47;;
52029;SDS011;38043;53.224;6.580;2023-07-22T09:00:06;13.00;;;5.60;;
52029;SDS011;38043;53.224;6.580;2023-07-22T09:02:34;7.45;;;4.85;;
52029;SDS011;38043;53.224;6.580;2023-07-22T09:05:00;7.32;;;5.18;;
52029;SDS011;38043;53.224;6.580;2023-07-22T09:07:27;9.18;;;5.15;;
52029;SDS011;38043;53.224;6.580;2023-07-22T09:09:54;11.05;;;5.80;;
52029;SDS011;38043;53.224;6.580;2023-07-22T09:12:21;9.25;;;5.43;;
52029;SDS011;38043;53.224;6.580;2023-07-22T09:14:48;7.45;;;5.10;;
52029;SDS011;38043;53.224;6.580;2023-07-22T09:19:41;6.80;;;4.30;;
52029;SDS011;38043;53.224;6.580;2023-07-22T09:22:09;9.23;;;4.63;;
52029;SDS011;38043;53.224;6.580;2023-07-22T09:24:35;8.80;;;4.78;;
52029;SDS011;38043;53.224;6.580;2023-07-22T09:27:01;10.07;;;5.22;;
52029;SDS011;38043;53.224;6.580;2023-07-22T09:29:59;18.10;;;5.50;;
52029;SDS011;38043;53.224;6.580;2023-07-22T09:32:21;6.65;;;4.55;;
52029;SDS011;38043;53.224;6.580;2023-07-22T09:35:00;9.20;;;4.70;;
52029;SDS011;38043;53.224;6.580;2023-07-22T09:37:35;10.35;;;4.78;;
52029;SDS011;38043;53.224;6.580;2023-07-22T09:40:15;8.05;;;5.07;;
52029;SDS011;38043;53.224;6.580;2023-07-22T09:42:49;11.57;;;6.03;;
52029;SDS011;38043;53.224;6.580;2023-07-22T09:45:20;13.73;;;6.40;;
52029;SDS011;38043;53.224;6.580;2023-07-22T09:47:49;13.55;;;7.35;;
52029;SDS011;38043;53.224;6.580;2023-07-22T09:50:17;17.00;;;8.07;;
52029;SDS011;38043;53.224;6.580;2023-07-22T09:52:55;15.55;;;7.85;;
52029;SDS011;38043;53.224;6.580;2023-07-22T09:55:26;15.18;;;8.43;;
52029;SDS011;38043;53.224;6.580;2023-07-22T09:57:56;12.77;;;8.70;;
52029;SDS011;38043;53.224;6.580;2023-07-22T10:00:28;12.50;;;7.75;;
52029;SDS011;38043;53.224;6.580;2023-07-22T10:03:01;12.23;;;8.25;;
52029;SDS011;38043;53.224;6.580;2023-07-22T10:05:33;11.70;;;6.70;;
52029;SDS011;38043;53.224;6.580;2023-07-22T10:08:00;11.20;;;6.40;;
52029;SDS011;38043;53.224;6.580;2023-07-22T10:10:39;12.25;;;7.00;;
52029;SDS011;38043;53.224;6.580;2023-07-22T10:13:07;12.27;;;6.65;;
52029;SDS011;38043;53.224;6.580;2023-07-22T10:15:34;10.07;;;5.75;;
52029;SDS011;38043;53.224;6.580;2023-07-22T10:18:03;8.85;;;6.03;;
52029;SDS011;38043;53.224;6.580;2023-07-22T10:20:32;8.85;;;6.00;;
52029;SDS011;38043;53.224;6.580;2023-07-22T10:23:01;11.38;;;6.03;;
52029;SDS011;38043;53.224;6.580;2023-07-22T10:25:27;9.75;;;6.47;;
52029;SDS011;38043;53.224;6.580;2023-07-22T10:27:53;13.35;;;6.63;;
52029;SDS011;38043;53.224;6.580;2023-07-22T10:30:19;12.50;;;6.68;;
52029;SDS011;38043;53.224;6.580;2023-07-22T10:32:45;12.93;;;6.72;;
52029;SDS011;38043;53.224;6.580;2023-07-22T10:38:11;11.32;;;7.13;;
52029;SDS011;38043;53.224;6.580;2023-07-22T10:40:56;10.48;;;7.00;;
52029;SDS011;38043;53.224;6.580;2023-07-22T10:43:32;11.68;;;7.05;;
52029;SDS011;38043;53.224;6.580;2023-07-22T10:46:05;12.15;;;6.45;;
52029;SDS011;38043;53.224;6.580;2023-07-22T10:48:34;9.50;;;6.68;;
52029;SDS011;38043;53.224;6.580;2023-07-22T10:51:06;9.40;;;6.38;;
52029;SDS011;38043;53.224;6.580;2023-07-22T10:53:44;9.32;;;6.28;;
52029;SDS011;38043;53.224;6.580;2023-07-22T11:06:37;9.25;;;6.30;;
52029;SDS011;38043;53.224;6.580;2023-07-22T11:09:04;12.20;;;6.78;;
52029;SDS011;38043;53.224;6.580;2023-07-22T11:11:40;12.35;;;6.85;;
52029;SDS011;38043;53.224;6.580;2023-07-22T11:16:46;9.23;;;6.30;;
52029;SDS011;38043;53.224;6.580;2023-07-22T11:19:13;10.43;;;5.95;;
52029;SDS011;38043;53.224;6.580;2023-07-22T11:21:46;8.25;;;5.88;;
52029;SDS011;38043;53.224;6.580;2023-07-22T11:24:12;9.73;;;6.30;;
52029;SDS011;38043;53.224;6.580;2023-07-22T11:26:39;14.30;;;6.95;;
52029;SDS011;38043;53.224;6.580;2023-07-22T11:29:05;10.65;;;6.95;;
52029;SDS011;38043;53.224;6.580;2023-07-22T11:31:32;14.43;;;7.45;;
52029;SDS011;38043;53.224;6.580;2023-07-22T11:33:59;8.32;;;5.75;;
52029;SDS011;38043;53.224;6.580;2023-07-22T11:36:26;8.20;;;5.70;;
52029;SDS011;38043;53.224;6.580;2023-07-22T11:38:52;9.80;;;6.03;;
52029;SDS011;38043;53.224;6.580;2023-07-22T11:41:19;8.32;;;6.13;;
52029;SDS011;38043;53.224;6.580;2023-07-22T11:43:46;10.20;;;5.93;;
52029;SDS011;38043;53.224;6.580;2023-07-22T11:46:12;11.00;;;6.18;;
52029;SDS011;38043;53.224;6.580;2023-07-22T11:48:37;8.93;;;6.45;;
52029;SDS011;38043;53.224;6.580;2023-07-22T11:51:03;11.07;;;6.88;;
52029;SDS011;38043;53.224;6.580;2023-07-22T11:53:30;10.17;;;7.80;;
52029;SDS011;38043;53.224;6.580;2023-07-22T11:55:56;13.38;;;9.00;;
52029;SDS011;38043;53.224;6.580;2023-07-22T11:58:26;13.45;;;8.43;;
52029;SDS011;38043;53.224;6.580;2023-07-22T12:01:06;11.30;;;7.93;;
52029;SDS011;38043;53.224;6.580;2023-07-22T12:03:35;15.80;;;9.50;;
52029;SDS011;38043;53.224;6.580;2023-07-22T12:06:03;13.13;;;8.95;;
52029;SDS011;38043;53.224;6.580;2023-07-22T12:08:30;15.95;;;10.15;;
52029;SDS011;38043;53.224;6.580;2023-07-22T12:10:57;15.65;;;9.70;;
52029;SDS011;38043;53.224;6.580;2023-07-22T12:13:26;13.82;;;9.93;;
52029;SDS011;38043;53.224;6.580;2023-07-22T12:16:00;17.40;;;10.70;;
52029;SDS011;38043;53.224;6.580;2023-07-22T12:18:28;14.07;;;9.80;;
52029;SDS011;38043;53.224;6.580;2023-07-22T12:21:05;14.85;;;9.98;;
52029;SDS011;38043;53.224;6.580;2023-07-22T12:23:31;13.23;;;10.45;;
52029;SDS011;38043;53.224;6.580;2023-07-22T12:25:56;15.13;;;9.80;;
52029;SDS011;38043;53.224;6.580;2023-07-22T12:28:22;10.75;;;9.23;;
52029;SDS011;38043;53.224;6.580;2023-07-22T12:30:49;12.57;;;9.68;;
52029;SDS011;38043;53.224;6.580;2023-07-22T12:33:16;12.50;;;9.63;;
52029;SDS011;38043;53.224;6.580;2023-07-22T12:35:42;16.13;;;10.82;;
52029;SDS011;38043;53.224;6.580;2023-07-22T12:38:08;13.75;;;10.07;;
52029;SDS011;38043;53.224;6.580;2023-07-22T12:40:34;14.40;;;10.75;;
52029;SDS011;38043;53.224;6.580;2023-07-22T12:43:00;13.77;;;9.77;;
52029;SDS011;38043;53.224;6.580;2023-07-22T12:45:25;14.65;;;10.75;;
52029;SDS011;38043;53.224;6.580;2023-07-22T12:47:51;16.02;;;10.45;;
52029;SDS011;38043;53.224;6.580;2023-07-22T12:50:17;15.43;;;10.95;;
52029;SDS011;38043;53.224;6.580;2023-07-22T12:52:42;18.75;;;11.55;;
52029;SDS011;38043;53.224;6.580;2023-07-22T12:55:08;16.92;;;11.57;;
52029;SDS011;38043;53.224;6.580;2023-07-22T12:57:34;18.38;;;11.90;;
52029;SDS011;38043;53.224;6.580;2023-07-22T12:59:59;16.33;;;10.93;;
52029;SDS011;38043;53.224;6.580;2023-07-22T13:02:25;17.58;;;11.05;;
52029;SDS011;38043;53.224;6.580;2023-07-22T13:04:51;15.85;;;10.35;;
52029;SDS011;38043;53.224;6.580;2023-07-22T13:07:16;18.00;;;10.90;;
52029;SDS011;38043;53.224;6.580;2023-07-22T13:09:45;14.05;;;11.02;;
52029;SDS011;38043;53.224;6.580;2023-07-22T13:12:12;12.93;;;10.50;;
52029;SDS011;38043;53.224;6.580;2023-07-22T13:14:38;17.40;;;10.85;;
52029;SDS011;38043;53.224;6.580;2023-07-22T13:17:03;13.55;;;10.13;;
52029;SDS011;38043;53.224;6.580;2023-07-22T13:19:29;15.75;;;9.88;;
52029;SDS011;38043;53.224;6.580;2023-07-22T13:21:55;14.68;;;11.45;;
52029;SDS011;38043;53.224;6.580;2023-07-22T13:24:21;15.68;;;10.18;;
52029;SDS011;38043;53.224;6.580;2023-07-22T13:26:46;12.38;;;10.10;;
52029;SDS011;38043;53.224;6.580;2023-07-22T13:29:12;16.70;;;10.40;;
52029;SDS011;38043;53.224;6.580;2023-07-22T13:31:38;11.95;;;9.93;;
52029;SDS011;38043;53.224;6.580;2023-07-22T13:34:04;15.10;;;11.05;;
52029;SDS011;38043;53.224;6.580;2023-07-22T13:36:30;14.98;;;10.30;;
52029;SDS011;38043;53.224;6.580;2023-07-22T13:38:55;15.20;;;9.40;;
52029;SDS011;38043;53.224;6.580;2023-07-22T13:41:21;14.07;;;10.07;;
52029;SDS011;38043;53.224;6.580;2023-07-22T13:43:47;14.07;;;11.00;;
52029;SDS011;38043;53.224;6.580;2023-07-22T13:46:12;14.23;;;10.10;;
52029;SDS011;38043;53.224;6.580;2023-07-22T13:48:38;13.20;;;10.20;;
52029;SDS011;38043;53.224;6.580;2023-07-22T13:51:04;13.52;;;10.65;;
52029;SDS011;38043;53.224;6.580;2023-07-22T13:53:29;20.40;;;10.65;;
52029;SDS011;38043;53.224;6.580;2023-07-22T13:55:57;13.32;;;10.68;;
52029;SDS011;38043;53.224;6.580;2023-07-22T13:58:23;14.15;;;11.18;;
52029;SDS011;38043;53.224;6.580;2023-07-22T14:00:51;15.52;;;10.68;;
52029;SDS011;38043;53.224;6.580;2023-07-22T14:03:16;14.38;;;10.48;;
52029;SDS011;38043;53.224;6.580;2023-07-22T14:05:42;13.85;;;10.73;;
52029;SDS011;38043;53.224;6.580;2023-07-22T14:08:08;15.13;;;10.88;;
52029;SDS011;38043;53.224;6.580;2023-07-22T14:10:33;13.73;;;10.20;;
52029;SDS011;38043;53.224;6.580;2023-07-22T14:12:59;13.45;;;11.05;;
52029;SDS011;38043;53.224;6.580;2023-07-22T14:15:26;11.85;;;9.88;;
52029;SDS011;38043;53.224;6.580;2023-07-22T14:17:52;14.32;;;10.23;;
52029;SDS011;38043;53.224;6.580;2023-07-22T14:20:17;12.40;;;9.05;;
52029;SDS011;38043;53.224;6.580;2023-07-22T14:22:44;12.25;;;8.63;;
52029;SDS011;38043;53.224;6.580;2023-07-22T14:25:10;12.05;;;9.10;;
52029;SDS011;38043;53.224;6.580;2023-07-22T14:27:37;14.68;;;8.85;;
52029;SDS011;38043;53.224;6.580;2023-07-22T14:30:04;12.32;;;9.05;;
52029;SDS011;38043;53.224;6.580;2023-07-22T14:32:34;13.75;;;9.35;;
52029;SDS011;38043;53.224;6.580;2023-07-22T14:35:01;12.32;;;8.90;;
52029;SDS011;38043;53.224;6.580;2023-07-22T14:37:26;15.57;;;8.82;;
52029;SDS011;38043;53.224;6.580;2023-07-22T14:39:52;13.57;;;8.70;;
52029;SDS011;38043;53.224;6.580;2023-07-22T14:42:18;15.10;;;8.75;;
52029;SDS011;38043;53.224;6.580;2023-07-22T14:44:44;13.85;;;9.75;;
52029;SDS011;38043;53.224;6.580;2023-07-22T14:47:10;14.68;;;10.30;;
52029;SDS011;38043;53.224;6.580;2023-07-22T14:49:35;13.75;;;10.52;;
52029;SDS011;38043;53.224;6.580;2023-07-22T14:52:01;18.80;;;10.98;;
52029;SDS011;38043;53.224;6.580;2023-07-22T14:54:27;14.68;;;11.45;;
52029;SDS011;38043;53.224;6.580;2023-07-22T14:56:52;22.42;;;11.05;;
52029;SDS011;38043;53.224;6.580;2023-07-22T14:59:18;15.88;;;11.85;;